Bookmark and Share
Track history (hours):
 

Chemstar Masa

Last reported at 2014-Mar-13 18:08 UTC. Time now 2014-Apr-19 17:10 UTC.
Position N 35°37' E 140°57'.
Warning: this ship's position is 36 days out of date.

Length 141 m; draft 5.2 m.

Type: Tanker. MMSI: 353456000.

NotesDate/timePositionNaut miles runAvg speedWind from/ knotsBaromVisibWave heightAir tempDewpointWater temp
2014-Mar-13 18:08N 35°37' E 140°57'610.2
2014-Mar-13 17:31N 35°43' E 141°01'19 0.6
2014-Mar-12 08:25N 36°02' E 140°58'1315.5
2014-Mar-12 07:33N 35°48' E 141°00'1414.1
2014-Mar-12 06:34N 35°35' E 140°54'1514.8
2014-Mar-12 05:33N 35°22' E 140°45'1815.1
2014-Mar-12 04:20N 35°09' E 140°30'1215.0
2014-Mar-12 03:32N 35°01' E 140°18'1414.3
2014-Mar-12 02:33N 34°53' E 140°04'1413.8
2014-Mar-12 01:33N 34°50' E 139°48'1212.2
2014-Mar-12 00:33N 35°01' E 139°43'1312.6
2014-Mar-11 23:34N 35°14' E 139°46'1212.1
2014-Mar-11 22:34N 35°26' E 139°44'5 5.3
2014-Mar-11 21:33N 35°31' E 139°46'0 0.0
2014-Mar-11 20:31N 35°31' E 139°46'0 0.0
2014-Mar-11 19:28N 35°31' E 139°46'0 0.0
2014-Mar-11 18:22N 35°31' E 139°46'0 0.0
2014-Mar-11 17:31N 35°31' E 139°46'0 0.1
2014-Mar-11 16:31N 35°31' E 139°46'0 0.0
2014-Mar-11 15:31N 35°31' E 139°46'0 0.0
2014-Mar-11 14:25N 35°31' E 139°46'0 0.0
2014-Mar-11 13:28N 35°31' E 139°46'0 0.0
2014-Mar-11 12:25N 35°31' E 139°46'0 0.0
2014-Mar-11 11:16N 35°31' E 139°46'0 0.1
2014-Mar-11 10:28N 35°31' E 139°46'0 0.0
2014-Mar-11 09:19N 35°31' E 139°46'0 0.0
2014-Mar-11 08:25N 35°31' E 139°46'0 0.0
2014-Mar-11 07:19N 35°31' E 139°46'0 0.0
2014-Mar-11 06:25N 35°31' E 139°46'0 0.1
2014-Mar-11 05:31N 35°31' E 139°46'0 0.0
2014-Mar-11 04:28N 35°31' E 139°46'0 0.0
2014-Mar-11 03:25N 35°31' E 139°46'0 0.0
2014-Mar-11 02:28N 35°31' E 139°46'0 0.0
2014-Mar-11 01:22N 35°31' E 139°46'0 0.0
2014-Mar-11 00:29N 35°31' E 139°46'4 3.9
2014-Mar-10 23:31N 35°27' E 139°47'0 0.0
2014-Mar-10 22:33N 35°27' E 139°47'0 0.5
2014-Mar-10 21:33N 35°27' E 139°47'10 9.9
2014-Mar-10 20:33N 35°17' E 139°45'10 9.8
2014-Mar-10 19:33N 35°07' E 139°45'1211.8
2014-Mar-10 18:33N 34°56' E 139°40'  
2014-Mar-04 15:31N 22°52' E 119°47'1414.6
2014-Mar-04 14:33N 22°39' E 119°45'1414.0
2014-Mar-04 13:31N 22°24' E 119°43'  

Dump ship's entire track history

sailing weather and tide predictions

Chemstar Masa — 3FGM7 — position and weather